Share

Alta Lufthavn, Norway

4:41 PM CEST on April 23, 2014 (GMT +0200)
IFINNMAR2 Elev 66 ft | 69.92 °N, 23.27 °E | Change Station

Current weather conditions updated 1 minute ago

Light Snow
Light Snow
37.9 °F
Feels Like 34 °F
N
5.0
Wind Variable Wind from WNW
Gusts 13.0 mph
Sunrise 3:42 AM
Sunset 9:10 PM
Moon Waning Crescent

Tomorrow is forecast to be Warmer than today. Afternoon showers.

Pressure 30.36 in
Visibility 1.5 miles
Clouds Few 300 ft
Mostly Cloudy 1500 ft
Overcast 2400 ft
Windchill 34 °F
Dew Point 26 °F
Humidity 61%
Rainfall 0.16 in
Snow Depth Not available.
UV 1 out of 16
Pollen Not available.
Air Quality Not available.
Flu Activity Not available.
METAR ENNA 231420Z 28019KT 2400 -SN FEW003 BKN015 OVC024 02/M01 Q1028 RMK

More Conditions Fewer Conditions

Pressure 30.36 in
Visibility 1.5 miles
Clouds Few 300 ft
Mostly Cloudy 1500 ft
Overcast 2400 ft
Windchill 34 °F
Dew Point 26 °F
Humidity 61%
Rainfall 0.16 in
Snow Depth Not available.
UV 1 out of 16
Pollen Not available.
Air Quality Not available.
Flu Activity Not available.
METAR ENNA 231420Z 28019KT 2400 -SN FEW003 BKN015 OVC024 02/M01 Q1028 RMK

More Conditions Fewer Conditions

10-Day Weather Forecast

Almanac

Astronomy

Apr. 23, 2014 Rise Set
Actual Time 3:42 AM CEST 9:10 PM CEST
Civil Twilight 1:58 AM CEST 11:00 PM CEST
Nautical Twilight Sun does not rise Sun does not rise
Astronomical Twilight Sun does not rise Sun does not rise
Moon 3:42 AM CEST 11:25 AM CEST
Length of Visible Light 21h 01m
Length of Day
17h 27m
Tomorrow will be 10m 15s longer.
Waning Crescent, 36% of the Moon is Illuminated
Today
Waning Crescent
Apr 29
New
May 6
First Quarter
May 14
Full
May 21
Last Quarter

Today's Extremes

Country Highs Country Lows

Community

  • spring flowers
    spring flowers
  • Earth Day Spectrum Ove' Blue
    Earth Day Spectrum Ove' Blue
  • BARN B&W
    BARN B&W
  • April Sunset
    April Sunset
  • Waiting..
    Waiting..

WunderPhotos

Upload Photos

1,704,299 photos uploaded!

Nearby

Snow Depth

Not available.

Coastal Water Temperatures

Place Temperature
No Stations Reporting

Earthquake Activity

City Distance Mag. Time & Date
No recent earthquake activity has been reported nearby.
Minimum magnitude displayed is 2.5.

Nearby Weather Stations

Station Location Temp. Windchill Dew Point Humidity Wind Precip. Elev Updated Type
Altaelva 37.9 °F 34 °F 26 °F 61% WNW  at  5.0 mph 0.02 in / hr 66 ft 4:40 PM CEST Normal

Show More Stations Show Fewer Stations

What do you think?

We're not finished. Please let us know what you like, what you don't like, and what you are still missing.